createdAt,value
2022-11-09T00:04:01.518Z,57.35
2022-11-09T00:08:54.930Z,53.58
2022-11-09T00:13:49.234Z,54.13
2022-11-09T00:18:47.897Z,58.33
2022-11-09T00:23:41.522Z,63.35
2022-11-09T00:28:36.142Z,58.08
2022-11-09T00:33:32.546Z,55.00
2022-11-09T00:38:30.881Z,59.03
2022-11-09T00:43:28.112Z,54.60
2022-11-09T00:48:22.857Z,62.10
2022-11-09T00:53:22.555Z,63.97
2022-11-09T00:58:16.081Z,63.45
2022-11-09T01:03:13.194Z,56.28
2022-11-09T01:08:08.212Z,57.63
2022-11-09T01:13:03.739Z,56.45
2022-11-09T01:17:58.382Z,55.67
2022-11-09T01:22:52.057Z,55.60
2022-11-09T01:27:46.322Z,65.15
2022-11-09T01:32:39.889Z,55.33
2022-11-09T01:37:33.550Z,68.95
2022-11-09T01:42:28.073Z,62.67
2022-11-09T01:47:25.197Z,56.15
2022-11-09T01:52:30.775Z,57.15
2022-11-09T01:57:31.192Z,53.05
2022-11-09T02:02:25.225Z,62.92
2022-11-09T02:07:20.052Z,55.80
2022-11-09T02:12:12.807Z,55.47
2022-11-09T02:17:06.423Z,55.15
2022-11-09T02:22:00.490Z,59.97
2022-11-09T02:26:54.742Z,55.25
2022-11-09T02:31:52.525Z,53.47
2022-11-09T02:36:46.390Z,49.55
2022-11-09T02:41:48.691Z,51.97
2022-11-09T02:46:43.631Z,49.15
2022-11-09T02:51:36.668Z,47.45
2022-11-09T02:56:30.473Z,46.78
2022-11-09T03:01:24.208Z,51.97
2022-11-09T03:06:17.149Z,49.05
2022-11-09T03:11:12.347Z,47.55
2022-11-09T03:16:08.352Z,47.97
2022-11-09T03:21:06.423Z,58.20
2022-11-09T03:25:59.000Z,54.85
2022-11-09T03:30:53.458Z,53.85
2022-11-09T03:35:47.472Z,52.03
2022-11-09T03:40:43.997Z,60.58
2022-11-09T03:45:38.255Z,55.90
2022-11-09T03:50:34.326Z,55.35
2022-11-09T03:55:27.965Z,58.58
2022-11-09T04:00:23.309Z,61.85
2022-11-09T04:05:16.233Z,53.50
2022-11-09T04:10:11.374Z,55.13
2022-11-09T04:15:06.777Z,56.45
2022-11-09T04:19:59.714Z,53.80
2022-11-09T04:24:54.366Z,58.60
2022-11-09T04:29:47.636Z,54.17
2022-11-09T04:34:41.838Z,55.97
2022-11-09T04:39:35.683Z,52.20
2022-11-09T04:44:30.221Z,58.70
2022-11-09T04:49:23.533Z,53.63
2022-11-09T04:54:18.027Z,54.60
2022-11-09T04:59:12.371Z,58.67
2022-11-09T05:04:06.565Z,58.70
2022-11-09T05:09:03.790Z,51.25
2022-11-09T05:13:57.652Z,54.30
2022-11-09T05:18:50.990Z,55.70
2022-11-09T05:24:01.613Z,61.30
2022-11-09T05:28:55.525Z,61.67
2022-11-09T05:33:51.858Z,57.80
2022-11-09T05:38:45.549Z,60.20
2022-11-09T05:43:38.355Z,59.03
2022-11-09T05:48:32.754Z,60.58
2022-11-09T05:53:26.698Z,56.88
2022-11-09T05:58:20.909Z,57.83
2022-11-09T06:03:14.505Z,57.47
2022-11-09T06:08:10.478Z,59.22
2022-11-09T06:13:04.625Z,56.78
2022-11-09T06:18:00.524Z,59.47
2022-11-09T06:23:02.551Z,55.50
2022-11-09T06:27:57.036Z,51.33
2022-11-09T06:32:55.061Z,60.03
2022-11-09T06:37:48.649Z,56.38
2022-11-09T06:42:42.362Z,58.47
2022-11-09T06:47:36.724Z,64.72
2022-11-09T06:52:30.545Z,58.28
2022-11-09T06:57:24.563Z,59.30
2022-11-09T07:02:20.693Z,68.82
2022-11-09T07:07:13.447Z,63.13
2022-11-09T07:12:08.102Z,64.28
2022-11-09T07:17:00.990Z,66.03
2022-11-09T07:21:54.322Z,68.03
2022-11-09T07:26:49.889Z,58.53
2022-11-09T07:31:43.165Z,60.33
2022-11-09T07:36:55.754Z,64.95
2022-11-09T07:41:49.174Z,58.78
2022-11-09T07:46:44.629Z,60.92
2022-11-09T07:51:38.577Z,61.97
2022-11-09T07:56:31.507Z,53.40
2022-11-09T08:01:26.294Z,60.45
2022-11-09T08:06:20.105Z,62.35
2022-11-09T08:11:13.682Z,62.83
2022-11-09T08:16:07.290Z,64.60
2022-11-09T08:21:04.264Z,64.40
2022-11-09T08:25:56.981Z,59.47
2022-11-09T08:31:05.740Z,69.43
2022-11-09T08:35:58.895Z,62.93
2022-11-09T08:40:57.529Z,71.03
2022-11-09T08:45:52.020Z,68.35
2022-11-09T08:50:46.242Z,64.53
2022-11-09T08:55:40.128Z,73.13
2022-11-09T09:00:33.994Z,64.13
2022-11-09T09:05:26.996Z,60.53
2022-11-09T09:10:21.194Z,67.70
2022-11-09T09:15:14.733Z,61.60
2022-11-09T09:20:08.853Z,65.90
2022-11-09T09:25:02.827Z,67.75
2022-11-09T09:29:56.718Z,69.95
2022-11-09T09:34:51.402Z,64.38
2022-11-09T09:39:45.137Z,66.75
2022-11-09T09:44:41.241Z,66.38
2022-11-09T09:49:37.850Z,65.25
2022-11-09T09:54:36.207Z,68.47
2022-11-09T09:59:42.800Z,69.78
2022-11-09T10:04:42.048Z,69.40
2022-11-09T10:10:10.858Z,73.57
2022-11-09T10:15:20.477Z,70.60
2022-11-09T10:20:36.414Z,73.15
2022-11-09T10:25:57.869Z,73.47
2022-11-09T10:30:45.777Z,73.05
2022-11-09T10:35:45.913Z,60.63
2022-11-09T10:40:48.295Z,69.82
2022-11-09T10:46:09.195Z,60.08
2022-11-09T10:51:34.650Z,63.50
2022-11-09T10:57:06.073Z,65.90
2022-11-09T11:02:27.288Z,62.65
2022-11-09T11:07:38.875Z,59.17
2022-11-09T11:13:10.575Z,60.80
2022-11-09T11:18:25.197Z,62.45
2022-11-09T11:23:37.556Z,62.10
2022-11-09T11:29:03.248Z,63.08
2022-11-09T11:34:32.175Z,65.90
2022-11-09T11:40:13.563Z,65.13
2022-11-09T11:45:50.061Z,63.80
2022-11-09T11:51:01.652Z,80.90
2022-11-09T11:56:27.923Z,70.45
2022-11-09T12:01:48.383Z,63.33
2022-11-09T12:07:25.107Z,67.40
2022-11-09T12:13:04.060Z,61.47
2022-11-09T12:18:46.327Z,58.08
2022-11-09T12:24:13.244Z,54.70
2022-11-09T12:30:10.693Z,53.47
2022-11-09T12:36:11.732Z,52.35
2022-11-09T12:41:43.601Z,55.45
2022-11-09T12:47:03.761Z,52.33
2022-11-09T12:52:21.677Z,60.72
2022-11-09T12:57:33.904Z,59.47
2022-11-09T13:02:55.515Z,56.65
2022-11-09T13:08:08.919Z,55.80
2022-11-09T13:13:23.410Z,57.47
2022-11-09T13:18:41.635Z,60.00
2022-11-09T13:24:02.910Z,58.72
2022-11-09T13:29:29.955Z,60.45
2022-11-09T13:34:44.272Z,62.55
2022-11-09T13:39:56.719Z,62.35
2022-11-09T13:45:29.041Z,59.97
2022-11-09T13:50:41.714Z,62.13
2022-11-09T13:55:53.569Z,59.55
2022-11-09T14:01:06.409Z,60.03
2022-11-09T14:06:18.064Z,65.78
2022-11-09T14:11:43.149Z,63.83
2022-11-09T14:17:18.702Z,62.03
2022-11-09T14:22:34.549Z,74.68
2022-11-09T14:27:57.157Z,68.30
2022-11-09T14:33:35.037Z,66.55
2022-11-09T14:38:48.184Z,75.70
2022-11-09T14:44:02.195Z,70.22
2022-11-09T14:49:14.420Z,68.57
2022-11-09T14:54:28.946Z,69.82
2022-11-09T14:59:43.453Z,75.82
2022-11-09T15:05:03.929Z,72.78
2022-11-09T15:10:23.119Z,71.55
2022-11-09T15:15:36.480Z,74.80
2022-11-09T15:20:48.115Z,68.90
2022-11-09T15:26:00.602Z,74.75
2022-11-09T15:31:15.880Z,72.57
2022-11-09T15:36:33.408Z,84.35
2022-11-09T15:41:45.952Z,76.13
2022-11-09T15:46:59.371Z,75.78
2022-11-09T15:52:12.263Z,71.65
2022-11-09T15:57:23.840Z,74.95
2022-11-09T16:02:36.279Z,71.85
2022-11-09T16:07:51.767Z,70.15
2022-11-09T16:13:03.707Z,75.70
2022-11-09T16:18:22.903Z,73.38
2022-11-09T16:23:36.711Z,75.90
2022-11-09T16:28:48.303Z,72.65
2022-11-09T16:34:00.976Z,71.68
2022-11-09T16:39:17.972Z,75.60
2022-11-09T16:44:34.541Z,74.60
2022-11-09T16:49:46.783Z,71.95
2022-11-09T16:54:59.327Z,76.82
2022-11-09T17:00:11.666Z,79.75
2022-11-09T17:05:24.436Z,74.38
2022-11-09T17:10:36.842Z,73.00
2022-11-09T17:15:50.158Z,83.45
2022-11-09T17:21:01.841Z,82.18
2022-11-09T17:26:13.487Z,82.75
2022-11-09T17:31:26.605Z,74.50
2022-11-09T17:42:12.307Z,79.70
2022-11-09T17:47:28.781Z,83.68
2022-11-09T17:52:41.156Z,83.18
2022-11-09T17:57:52.593Z,87.07
2022-11-09T18:03:05.469Z,90.68
2022-11-09T18:08:22.283Z,81.07
2022-11-09T18:13:34.005Z,81.45
2022-11-09T18:18:45.605Z,82.70
2022-11-09T18:23:58.293Z,79.45
2022-11-09T18:29:09.868Z,79.63
2022-11-09T18:34:22.665Z,78.78
2022-11-09T18:39:34.968Z,80.65
2022-11-09T18:44:45.726Z,84.03
2022-11-09T18:49:58.706Z,77.50
2022-11-09T18:55:11.821Z,84.05
2022-11-09T19:00:23.918Z,78.30
2022-11-09T19:05:40.846Z,77.15
2022-11-09T19:10:53.172Z,76.65
2022-11-09T19:16:06.071Z,78.00
2022-11-09T19:21:30.703Z,78.18
2022-11-09T19:26:42.700Z,77.53
2022-11-09T19:31:55.956Z,72.30
2022-11-09T19:37:09.271Z,68.57
2022-11-09T19:42:21.388Z,72.03
2022-11-09T19:47:33.072Z,73.60
2022-11-09T19:52:45.609Z,69.72
2022-11-09T19:57:58.132Z,71.35
2022-11-09T20:03:10.689Z,71.90
2022-11-09T20:08:23.358Z,73.30
2022-11-09T20:13:38.195Z,118.95
2022-11-09T20:18:50.676Z,70.97
2022-11-09T20:24:03.366Z,75.15
2022-11-09T20:29:15.793Z,75.13
2022-11-09T20:34:30.225Z,72.30
2022-11-09T20:39:43.284Z,78.50
2022-11-09T20:44:57.390Z,73.38
2022-11-09T20:50:09.785Z,78.35
2022-11-09T20:55:22.622Z,92.35
2022-11-09T21:00:34.616Z,78.32
2022-11-09T21:05:51.615Z,70.97
2022-11-09T21:11:06.284Z,76.18
2022-11-09T21:16:18.400Z,77.70
2022-11-09T21:21:35.050Z,75.68
2022-11-09T21:27:06.194Z,74.63
2022-11-09T21:32:18.743Z,61.13
2022-11-09T21:37:31.282Z,67.18
2022-11-09T21:42:43.937Z,61.03
2022-11-09T21:47:56.114Z,67.07
2022-11-09T21:53:08.717Z,60.28
2022-11-09T21:58:20.468Z,63.85
2022-11-09T22:03:32.138Z,62.00
2022-11-09T22:08:44.092Z,70.60
2022-11-09T22:14:14.744Z,63.67
2022-11-09T22:19:45.381Z,62.03
2022-11-09T22:30:11.795Z,57.17
2022-11-09T22:35:24.648Z,55.40
2022-11-09T22:40:37.678Z,53.47
2022-11-09T22:45:49.997Z,59.05
2022-11-09T22:51:02.202Z,56.75
2022-11-09T22:56:13.336Z,54.42
2022-11-09T23:01:25.761Z,54.22
2022-11-09T23:06:37.511Z,54.30
2022-11-09T23:11:49.859Z,60.45
2022-11-09T23:17:02.542Z,53.72
2022-11-09T23:22:14.153Z,52.30
2022-11-09T23:27:26.768Z,51.15
2022-11-09T23:32:38.893Z,54.15
2022-11-09T23:38:01.083Z,52.22
2022-11-09T23:43:13.837Z,50.35
2022-11-09T23:48:26.669Z,53.25
2022-11-09T23:53:42.961Z,55.55
2022-11-09T23:58:54.519Z,54.15
